sensor_id;sensor_type;location;lat;lon;timestamp;P1;durP1;ratioP1;P2;durP2;ratioP2
22068;SDS011;13887;57.196;-2.100;2023-08-07T00:02:11;12.17;;;11.77;;
22068;SDS011;13887;57.196;-2.100;2023-08-07T00:04:38;11.53;;;11.13;;
22068;SDS011;13887;57.196;-2.100;2023-08-07T00:07:06;11.73;;;11.33;;
22068;SDS011;13887;57.196;-2.100;2023-08-07T00:09:33;12.23;;;11.83;;
22068;SDS011;13887;57.196;-2.100;2023-08-07T00:12:00;12.07;;;11.67;;
22068;SDS011;13887;57.196;-2.100;2023-08-07T00:14:27;11.90;;;11.50;;
22068;SDS011;13887;57.196;-2.100;2023-08-07T00:16:54;12.10;;;11.70;;
22068;SDS011;13887;57.196;-2.100;2023-08-07T00:19:21;11.93;;;11.53;;
22068;SDS011;13887;57.196;-2.100;2023-08-07T00:21:48;11.90;;;11.50;;
22068;SDS011;13887;57.196;-2.100;2023-08-07T00:24:15;11.80;;;11.40;;
22068;SDS011;13887;57.196;-2.100;2023-08-07T00:26:42;11.60;;;11.20;;
22068;SDS011;13887;57.196;-2.100;2023-08-07T00:29:09;11.70;;;11.30;;
22068;SDS011;13887;57.196;-2.100;2023-08-07T00:31:36;11.50;;;11.10;;
22068;SDS011;13887;57.196;-2.100;2023-08-07T00:34:04;12.10;;;11.70;;
22068;SDS011;13887;57.196;-2.100;2023-08-07T00:36:31;11.87;;;11.47;;
22068;SDS011;13887;57.196;-2.100;2023-08-07T00:39:01;11.83;;;11.43;;
22068;SDS011;13887;57.196;-2.100;2023-08-07T00:41:32;12.00;;;11.60;;
22068;SDS011;13887;57.196;-2.100;2023-08-07T00:43:59;11.90;;;11.50;;
22068;SDS011;13887;57.196;-2.100;2023-08-07T00:46:27;11.90;;;11.50;;
22068;SDS011;13887;57.196;-2.100;2023-08-07T00:48:56;12.07;;;11.67;;
22068;SDS011;13887;57.196;-2.100;2023-08-07T00:51:23;12.00;;;11.60;;
22068;SDS011;13887;57.196;-2.100;2023-08-07T00:53:50;12.20;;;11.80;;
22068;SDS011;13887;57.196;-2.100;2023-08-07T00:56:18;12.30;;;11.90;;
22068;SDS011;13887;57.196;-2.100;2023-08-07T00:58:45;12.27;;;11.87;;
22068;SDS011;13887;57.196;-2.100;2023-08-07T01:01:13;12.07;;;11.67;;
22068;SDS011;13887;57.196;-2.100;2023-08-07T01:03:41;11.97;;;11.57;;
22068;SDS011;13887;57.196;-2.100;2023-08-07T01:06:08;12.33;;;11.93;;
22068;SDS011;13887;57.196;-2.100;2023-08-07T01:08:35;11.67;;;11.27;;
22068;SDS011;13887;57.196;-2.100;2023-08-07T01:16:40;12.17;;;11.77;;
22068;SDS011;13887;57.196;-2.100;2023-08-07T01:19:19;12.20;;;11.80;;
22068;SDS011;13887;57.196;-2.100;2023-08-07T01:22:04;11.97;;;11.57;;
22068;SDS011;13887;57.196;-2.100;2023-08-07T01:24:37;12.13;;;11.73;;
22068;SDS011;13887;57.196;-2.100;2023-08-07T01:32:17;12.33;;;11.93;;
22068;SDS011;13887;57.196;-2.100;2023-08-07T01:34:51;11.87;;;11.47;;
22068;SDS011;13887;57.196;-2.100;2023-08-07T01:37:20;12.40;;;12.00;;
22068;SDS011;13887;57.196;-2.100;2023-08-07T01:39:49;12.17;;;11.77;;
22068;SDS011;13887;57.196;-2.100;2023-08-07T01:42:19;11.97;;;11.57;;
22068;SDS011;13887;57.196;-2.100;2023-08-07T01:44:46;12.10;;;11.70;;
22068;SDS011;13887;57.196;-2.100;2023-08-07T01:47:14;11.90;;;11.50;;
22068;SDS011;13887;57.196;-2.100;2023-08-07T01:49:41;11.47;;;11.07;;
22068;SDS011;13887;57.196;-2.100;2023-08-07T01:52:09;11.90;;;11.50;;
22068;SDS011;13887;57.196;-2.100;2023-08-07T01:54:37;12.07;;;11.67;;
22068;SDS011;13887;57.196;-2.100;2023-08-07T01:57:05;11.67;;;11.27;;
22068;SDS011;13887;57.196;-2.100;2023-08-07T01:59:32;11.87;;;11.47;;
22068;SDS011;13887;57.196;-2.100;2023-08-07T02:01:59;11.80;;;11.40;;
22068;SDS011;13887;57.196;-2.100;2023-08-07T02:04:27;11.73;;;11.33;;
22068;SDS011;13887;57.196;-2.100;2023-08-07T02:06:54;11.73;;;11.33;;
22068;SDS011;13887;57.196;-2.100;2023-08-07T02:09:23;11.90;;;11.50;;
22068;SDS011;13887;57.196;-2.100;2023-08-07T02:11:50;11.87;;;11.47;;
22068;SDS011;13887;57.196;-2.100;2023-08-07T02:14:17;12.10;;;11.70;;
22068;SDS011;13887;57.196;-2.100;2023-08-07T02:16:44;12.03;;;11.63;;
22068;SDS011;13887;57.196;-2.100;2023-08-07T02:19:12;11.90;;;11.50;;
22068;SDS011;13887;57.196;-2.100;2023-08-07T02:21:39;12.13;;;11.73;;
22068;SDS011;13887;57.196;-2.100;2023-08-07T02:24:06;11.80;;;11.40;;
22068;SDS011;13887;57.196;-2.100;2023-08-07T02:26:33;12.10;;;11.70;;
22068;SDS011;13887;57.196;-2.100;2023-08-07T02:29:00;11.67;;;11.27;;
22068;SDS011;13887;57.196;-2.100;2023-08-07T02:31:27;12.00;;;11.60;;
22068;SDS011;13887;57.196;-2.100;2023-08-07T02:33:54;12.00;;;11.60;;
22068;SDS011;13887;57.196;-2.100;2023-08-07T02:36:21;11.73;;;11.33;;
22068;SDS011;13887;57.196;-2.100;2023-08-07T02:38:48;11.80;;;11.40;;
22068;SDS011;13887;57.196;-2.100;2023-08-07T02:41:15;12.00;;;11.60;;
22068;SDS011;13887;57.196;-2.100;2023-08-07T02:43:42;12.20;;;11.80;;
22068;SDS011;13887;57.196;-2.100;2023-08-07T02:46:09;11.87;;;11.47;;
22068;SDS011;13887;57.196;-2.100;2023-08-07T02:48:37;11.87;;;11.47;;
22068;SDS011;13887;57.196;-2.100;2023-08-07T02:51:04;12.10;;;11.70;;
22068;SDS011;13887;57.196;-2.100;2023-08-07T02:53:31;11.67;;;11.27;;
22068;SDS011;13887;57.196;-2.100;2023-08-07T02:55:58;12.10;;;11.70;;
22068;SDS011;13887;57.196;-2.100;2023-08-07T02:58:25;12.07;;;11.67;;
22068;SDS011;13887;57.196;-2.100;2023-08-07T03:00:52;12.17;;;11.77;;
22068;SDS011;13887;57.196;-2.100;2023-08-07T03:03:19;12.17;;;11.77;;
22068;SDS011;13887;57.196;-2.100;2023-08-07T03:05:50;12.40;;;12.00;;
22068;SDS011;13887;57.196;-2.100;2023-08-07T03:08:18;12.07;;;11.67;;
22068;SDS011;13887;57.196;-2.100;2023-08-07T03:10:52;12.20;;;11.80;;
22068;SDS011;13887;57.196;-2.100;2023-08-07T03:13:19;12.30;;;11.90;;
22068;SDS011;13887;57.196;-2.100;2023-08-07T03:15:46;12.20;;;11.80;;
22068;SDS011;13887;57.196;-2.100;2023-08-07T03:18:16;12.30;;;11.90;;
22068;SDS011;13887;57.196;-2.100;2023-08-07T03:20:44;11.97;;;11.57;;
22068;SDS011;13887;57.196;-2.100;2023-08-07T03:23:11;11.90;;;11.50;;
22068;SDS011;13887;57.196;-2.100;2023-08-07T03:25:38;12.00;;;11.60;;
22068;SDS011;13887;57.196;-2.100;2023-08-07T03:28:05;12.07;;;11.67;;
22068;SDS011;13887;57.196;-2.100;2023-08-07T03:30:32;12.20;;;11.80;;
22068;SDS011;13887;57.196;-2.100;2023-08-07T03:33:00;12.00;;;11.60;;
22068;SDS011;13887;57.196;-2.100;2023-08-07T03:35:28;12.37;;;11.97;;
22068;SDS011;13887;57.196;-2.100;2023-08-07T03:37:55;12.27;;;11.87;;
22068;SDS011;13887;57.196;-2.100;2023-08-07T03:40:22;12.30;;;11.90;;
22068;SDS011;13887;57.196;-2.100;2023-08-07T03:42:49;12.07;;;11.67;;
22068;SDS011;13887;57.196;-2.100;2023-08-07T03:45:16;12.17;;;11.77;;
22068;SDS011;13887;57.196;-2.100;2023-08-07T03:47:44;12.07;;;11.67;;
22068;SDS011;13887;57.196;-2.100;2023-08-07T03:50:11;12.33;;;11.93;;
22068;SDS011;13887;57.196;-2.100;2023-08-07T03:52:38;12.13;;;11.73;;
22068;SDS011;13887;57.196;-2.100;2023-08-07T03:55:05;12.30;;;11.90;;
22068;SDS011;13887;57.196;-2.100;2023-08-07T03:57:33;12.07;;;11.67;;
22068;SDS011;13887;57.196;-2.100;2023-08-07T04:00:00;11.80;;;11.40;;
22068;SDS011;13887;57.196;-2.100;2023-08-07T04:02:38;12.40;;;12.00;;
22068;SDS011;13887;57.196;-2.100;2023-08-07T04:05:08;12.30;;;11.90;;
22068;SDS011;13887;57.196;-2.100;2023-08-07T04:07:35;12.43;;;12.03;;
22068;SDS011;13887;57.196;-2.100;2023-08-07T04:10:02;12.60;;;12.20;;
22068;SDS011;13887;57.196;-2.100;2023-08-07T04:12:29;12.40;;;12.00;;
22068;SDS011;13887;57.196;-2.100;2023-08-07T04:14:56;12.10;;;11.70;;
22068;SDS011;13887;57.196;-2.100;2023-08-07T04:17:24;12.63;;;12.23;;
22068;SDS011;13887;57.196;-2.100;2023-08-07T04:19:51;12.63;;;12.23;;
22068;SDS011;13887;57.196;-2.100;2023-08-07T04:22:18;12.13;;;11.73;;
22068;SDS011;13887;57.196;-2.100;2023-08-07T04:24:45;12.53;;;12.13;;
22068;SDS011;13887;57.196;-2.100;2023-08-07T04:27:12;12.40;;;12.00;;
22068;SDS011;13887;57.196;-2.100;2023-08-07T04:29:41;12.33;;;11.93;;
22068;SDS011;13887;57.196;-2.100;2023-08-07T04:32:08;12.27;;;11.87;;
22068;SDS011;13887;57.196;-2.100;2023-08-07T04:34:35;11.97;;;11.57;;
22068;SDS011;13887;57.196;-2.100;2023-08-07T04:37:02;12.53;;;12.13;;
22068;SDS011;13887;57.196;-2.100;2023-08-07T04:39:29;12.23;;;11.83;;
22068;SDS011;13887;57.196;-2.100;2023-08-07T04:41:57;12.17;;;11.77;;
22068;SDS011;13887;57.196;-2.100;2023-08-07T04:44:24;12.23;;;11.83;;
22068;SDS011;13887;57.196;-2.100;2023-08-07T04:46:51;12.57;;;12.17;;
22068;SDS011;13887;57.196;-2.100;2023-08-07T04:49:19;12.70;;;12.30;;
22068;SDS011;13887;57.196;-2.100;2023-08-07T04:51:46;12.63;;;12.23;;
22068;SDS011;13887;57.196;-2.100;2023-08-07T04:54:13;12.47;;;12.07;;
22068;SDS011;13887;57.196;-2.100;2023-08-07T04:56:41;12.23;;;11.83;;
22068;SDS011;13887;57.196;-2.100;2023-08-07T04:59:11;12.60;;;12.20;;
22068;SDS011;13887;57.196;-2.100;2023-08-07T05:01:38;12.43;;;12.03;;
22068;SDS011;13887;57.196;-2.100;2023-08-07T05:04:05;12.50;;;12.10;;
22068;SDS011;13887;57.196;-2.100;2023-08-07T05:06:32;12.40;;;12.00;;
22068;SDS011;13887;57.196;-2.100;2023-08-07T05:09:00;12.70;;;12.30;;
22068;SDS011;13887;57.196;-2.100;2023-08-07T05:11:27;13.27;;;12.87;;
22068;SDS011;13887;57.196;-2.100;2023-08-07T05:13:54;12.87;;;12.47;;
22068;SDS011;13887;57.196;-2.100;2023-08-07T05:16:21;12.53;;;12.13;;
22068;SDS011;13887;57.196;-2.100;2023-08-07T05:18:50;12.60;;;12.20;;
22068;SDS011;13887;57.196;-2.100;2023-08-07T05:21:17;12.53;;;12.13;;
22068;SDS011;13887;57.196;-2.100;2023-08-07T05:23:44;12.60;;;12.20;;
22068;SDS011;13887;57.196;-2.100;2023-08-07T05:26:11;13.10;;;12.70;;
22068;SDS011;13887;57.196;-2.100;2023-08-07T05:28:38;13.10;;;12.70;;
22068;SDS011;13887;57.196;-2.100;2023-08-07T05:31:05;12.80;;;12.40;;
22068;SDS011;13887;57.196;-2.100;2023-08-07T05:33:33;12.80;;;12.40;;
22068;SDS011;13887;57.196;-2.100;2023-08-07T05:36:00;12.67;;;12.27;;
22068;SDS011;13887;57.196;-2.100;2023-08-07T05:38:27;12.97;;;12.57;;
22068;SDS011;13887;57.196;-2.100;2023-08-07T05:40:54;12.83;;;12.43;;
22068;SDS011;13887;57.196;-2.100;2023-08-07T05:43:21;13.00;;;12.60;;
22068;SDS011;13887;57.196;-2.100;2023-08-07T05:45:48;12.20;;;11.80;;
22068;SDS011;13887;57.196;-2.100;2023-08-07T05:48:15;12.73;;;12.33;;
22068;SDS011;13887;57.196;-2.100;2023-08-07T05:50:42;12.80;;;12.40;;
22068;SDS011;13887;57.196;-2.100;2023-08-07T05:53:10;12.93;;;12.53;;
22068;SDS011;13887;57.196;-2.100;2023-08-07T05:55:39;12.63;;;12.23;;
22068;SDS011;13887;57.196;-2.100;2023-08-07T05:58:07;13.00;;;12.60;;
22068;SDS011;13887;57.196;-2.100;2023-08-07T06:00:35;13.27;;;12.80;;
22068;SDS011;13887;57.196;-2.100;2023-08-07T06:03:02;13.13;;;12.73;;
22068;SDS011;13887;57.196;-2.100;2023-08-07T06:05:29;13.03;;;12.63;;
22068;SDS011;13887;57.196;-2.100;2023-08-07T06:07:56;13.20;;;12.80;;
22068;SDS011;13887;57.196;-2.100;2023-08-07T06:10:24;13.50;;;13.00;;
22068;SDS011;13887;57.196;-2.100;2023-08-07T06:12:51;13.10;;;12.70;;
22068;SDS011;13887;57.196;-2.100;2023-08-07T06:15:18;14.30;;;13.80;;
22068;SDS011;13887;57.196;-2.100;2023-08-07T06:17:46;13.20;;;12.80;;
22068;SDS011;13887;57.196;-2.100;2023-08-07T06:20:13;12.90;;;12.50;;
22068;SDS011;13887;57.196;-2.100;2023-08-07T06:22:42;13.17;;;12.77;;
22068;SDS011;13887;57.196;-2.100;2023-08-07T06:25:09;12.90;;;12.50;;
22068;SDS011;13887;57.196;-2.100;2023-08-07T06:27:37;13.20;;;12.80;;
22068;SDS011;13887;57.196;-2.100;2023-08-07T06:30:04;13.40;;;12.90;;
22068;SDS011;13887;57.196;-2.100;2023-08-07T06:32:32;13.40;;;12.90;;
22068;SDS011;13887;57.196;-2.100;2023-08-07T06:34:59;13.50;;;13.00;;
22068;SDS011;13887;57.196;-2.100;2023-08-07T06:37:26;13.00;;;12.60;;
22068;SDS011;13887;57.196;-2.100;2023-08-07T06:39:53;13.20;;;12.80;;
22068;SDS011;13887;57.196;-2.100;2023-08-07T06:42:20;12.73;;;12.33;;
22068;SDS011;13887;57.196;-2.100;2023-08-07T06:44:48;13.37;;;12.90;;
22068;SDS011;13887;57.196;-2.100;2023-08-07T06:47:15;12.70;;;12.30;;
22068;SDS011;13887;57.196;-2.100;2023-08-07T06:49:42;12.50;;;12.10;;
22068;SDS011;13887;57.196;-2.100;2023-08-07T06:52:09;13.00;;;12.60;;
22068;SDS011;13887;57.196;-2.100;2023-08-07T06:54:36;12.87;;;12.47;;
22068;SDS011;13887;57.196;-2.100;2023-08-07T06:57:04;13.10;;;12.70;;
22068;SDS011;13887;57.196;-2.100;2023-08-07T06:59:32;13.07;;;12.67;;
22068;SDS011;13887;57.196;-2.100;2023-08-07T07:01:59;12.83;;;12.43;;
22068;SDS011;13887;57.196;-2.100;2023-08-07T07:04:26;13.47;;;12.97;;
22068;SDS011;13887;57.196;-2.100;2023-08-07T07:06:54;13.50;;;13.00;;
22068;SDS011;13887;57.196;-2.100;2023-08-07T07:09:22;12.60;;;12.20;;
22068;SDS011;13887;57.196;-2.100;2023-08-07T07:11:49;13.67;;;13.17;;
22068;SDS011;13887;57.196;-2.100;2023-08-07T07:14:16;13.13;;;12.73;;
22068;SDS011;13887;57.196;-2.100;2023-08-07T07:16:44;12.97;;;12.57;;
22068;SDS011;13887;57.196;-2.100;2023-08-07T07:19:11;12.53;;;12.13;;
22068;SDS011;13887;57.196;-2.100;2023-08-07T07:21:38;12.87;;;12.47;;
22068;SDS011;13887;57.196;-2.100;2023-08-07T07:24:05;13.60;;;13.10;;
22068;SDS011;13887;57.196;-2.100;2023-08-07T07:26:33;13.03;;;12.63;;
22068;SDS011;13887;57.196;-2.100;2023-08-07T07:29:00;13.00;;;12.60;;
22068;SDS011;13887;57.196;-2.100;2023-08-07T07:31:27;13.30;;;12.90;;
22068;SDS011;13887;57.196;-2.100;2023-08-07T07:33:54;12.87;;;12.47;;
22068;SDS011;13887;57.196;-2.100;2023-08-07T07:36:21;12.60;;;12.20;;
22068;SDS011;13887;57.196;-2.100;2023-08-07T07:38:48;12.83;;;12.43;;
22068;SDS011;13887;57.196;-2.100;2023-08-07T07:41:16;12.97;;;12.57;;
22068;SDS011;13887;57.196;-2.100;2023-08-07T07:43:44;13.10;;;12.70;;
22068;SDS011;13887;57.196;-2.100;2023-08-07T07:46:11;13.30;;;12.90;;
22068;SDS011;13887;57.196;-2.100;2023-08-07T07:48:38;12.87;;;12.47;;
22068;SDS011;13887;57.196;-2.100;2023-08-07T07:51:05;12.23;;;11.83;;
22068;SDS011;13887;57.196;-2.100;2023-08-07T07:53:32;12.37;;;11.97;;
22068;SDS011;13887;57.196;-2.100;2023-08-07T07:55:59;12.70;;;12.30;;
22068;SDS011;13887;57.196;-2.100;2023-08-07T07:58:27;12.80;;;12.40;;
22068;SDS011;13887;57.196;-2.100;2023-08-07T08:00:54;12.57;;;12.17;;
22068;SDS011;13887;57.196;-2.100;2023-08-07T08:03:21;12.17;;;11.77;;
22068;SDS011;13887;57.196;-2.100;2023-08-07T08:06:13;12.33;;;11.93;;
22068;SDS011;13887;57.196;-2.100;2023-08-07T08:08:40;12.50;;;12.10;;
22068;SDS011;13887;57.196;-2.100;2023-08-07T08:11:09;12.10;;;11.70;;
22068;SDS011;13887;57.196;-2.100;2023-08-07T08:13:36;12.17;;;11.77;;
22068;SDS011;13887;57.196;-2.100;2023-08-07T08:16:06;12.30;;;11.90;;
22068;SDS011;13887;57.196;-2.100;2023-08-07T08:18:34;12.70;;;12.30;;
22068;SDS011;13887;57.196;-2.100;2023-08-07T08:21:01;13.10;;;12.70;;
22068;SDS011;13887;57.196;-2.100;2023-08-07T08:23:28;12.53;;;12.13;;
22068;SDS011;13887;57.196;-2.100;2023-08-07T08:25:55;12.40;;;12.00;;
22068;SDS011;13887;57.196;-2.100;2023-08-07T08:28:23;12.27;;;11.87;;
22068;SDS011;13887;57.196;-2.100;2023-08-07T08:30:51;12.50;;;12.10;;
22068;SDS011;13887;57.196;-2.100;2023-08-07T08:33:18;12.07;;;11.67;;
22068;SDS011;13887;57.196;-2.100;2023-08-07T08:35:45;11.43;;;11.03;;
22068;SDS011;13887;57.196;-2.100;2023-08-07T08:38:12;11.97;;;11.57;;
22068;SDS011;13887;57.196;-2.100;2023-08-07T08:40:39;12.13;;;11.73;;
22068;SDS011;13887;57.196;-2.100;2023-08-07T08:43:07;12.27;;;11.87;;
22068;SDS011;13887;57.196;-2.100;2023-08-07T08:45:37;12.47;;;12.07;;
22068;SDS011;13887;57.196;-2.100;2023-08-07T08:48:06;12.97;;;12.57;;
22068;SDS011;13887;57.196;-2.100;2023-08-07T08:50:36;12.40;;;12.00;;
22068;SDS011;13887;57.196;-2.100;2023-08-07T08:53:05;11.87;;;11.47;;
22068;SDS011;13887;57.196;-2.100;2023-08-07T08:55:37;12.00;;;11.60;;
22068;SDS011;13887;57.196;-2.100;2023-08-07T08:58:04;12.47;;;12.07;;
22068;SDS011;13887;57.196;-2.100;2023-08-07T09:00:33;12.13;;;11.73;;
22068;SDS011;13887;57.196;-2.100;2023-08-07T09:03:01;12.30;;;11.90;;
22068;SDS011;13887;57.196;-2.100;2023-08-07T09:05:29;12.10;;;11.70;;
22068;SDS011;13887;57.196;-2.100;2023-08-07T09:07:56;12.27;;;11.87;;
22068;SDS011;13887;57.196;-2.100;2023-08-07T09:10:23;12.37;;;11.97;;
22068;SDS011;13887;57.196;-2.100;2023-08-07T09:13:01;12.30;;;11.90;;
22068;SDS011;13887;57.196;-2.100;2023-08-07T09:15:32;12.60;;;12.20;;
22068;SDS011;13887;57.196;-2.100;2023-08-07T09:18:00;12.50;;;12.10;;
22068;SDS011;13887;57.196;-2.100;2023-08-07T09:20:27;12.67;;;12.27;;
22068;SDS011;13887;57.196;-2.100;2023-08-07T09:22:55;12.40;;;12.00;;
22068;SDS011;13887;57.196;-2.100;2023-08-07T09:28:03;12.27;;;11.87;;
22068;SDS011;13887;57.196;-2.100;2023-08-07T09:30:32;12.43;;;12.03;;
22068;SDS011;13887;57.196;-2.100;2023-08-07T09:33:02;12.50;;;12.10;;
22068;SDS011;13887;57.196;-2.100;2023-08-07T09:35:30;12.43;;;12.03;;
22068;SDS011;13887;57.196;-2.100;2023-08-07T09:37:58;12.60;;;12.20;;
22068;SDS011;13887;57.196;-2.100;2023-08-07T09:40:26;12.73;;;12.33;;
22068;SDS011;13887;57.196;-2.100;2023-08-07T09:42:53;12.80;;;12.40;;
22068;SDS011;13887;57.196;-2.100;2023-08-07T09:45:21;13.10;;;12.70;;
22068;SDS011;13887;57.196;-2.100;2023-08-07T09:48:01;12.47;;;12.07;;
22068;SDS011;13887;57.196;-2.100;2023-08-07T09:50:30;12.90;;;12.50;;
22068;SDS011;13887;57.196;-2.100;2023-08-07T09:52:58;12.90;;;12.50;;
22068;SDS011;13887;57.196;-2.100;2023-08-07T09:55:26;13.10;;;12.70;;
22068;SDS011;13887;57.196;-2.100;2023-08-07T09:57:54;12.50;;;12.10;;
22068;SDS011;13887;57.196;-2.100;2023-08-07T10:00:21;12.70;;;12.30;;
22068;SDS011;13887;57.196;-2.100;2023-08-07T10:02:49;12.27;;;11.87;;
22068;SDS011;13887;57.196;-2.100;2023-08-07T10:05:18;12.60;;;12.20;;
22068;SDS011;13887;57.196;-2.100;2023-08-07T10:07:45;13.17;;;12.73;;
22068;SDS011;13887;57.196;-2.100;2023-08-07T10:10:14;12.97;;;12.57;;
22068;SDS011;13887;57.196;-2.100;2023-08-07T10:12:41;12.67;;;12.27;;
22068;SDS011;13887;57.196;-2.100;2023-08-07T10:15:08;13.07;;;12.67;;
22068;SDS011;13887;57.196;-2.100;2023-08-07T10:17:36;12.83;;;12.43;;
22068;SDS011;13887;57.196;-2.100;2023-08-07T10:20:03;12.90;;;12.50;;
22068;SDS011;13887;57.196;-2.100;2023-08-07T10:22:31;13.00;;;12.60;;
22068;SDS011;13887;57.196;-2.100;2023-08-07T10:25:01;12.70;;;12.30;;
22068;SDS011;13887;57.196;-2.100;2023-08-07T10:27:31;13.30;;;12.83;;
22068;SDS011;13887;57.196;-2.100;2023-08-07T10:30:04;12.53;;;12.13;;
22068;SDS011;13887;57.196;-2.100;2023-08-07T10:32:34;12.40;;;12.00;;
22068;SDS011;13887;57.196;-2.100;2023-08-07T10:35:02;12.27;;;11.87;;
22068;SDS011;13887;57.196;-2.100;2023-08-07T10:37:32;12.50;;;12.10;;
22068;SDS011;13887;57.196;-2.100;2023-08-07T10:40:11;12.50;;;12.10;;
22068;SDS011;13887;57.196;-2.100;2023-08-07T10:42:52;12.70;;;12.30;;
22068;SDS011;13887;57.196;-2.100;2023-08-07T10:45:20;13.10;;;12.70;;
22068;SDS011;13887;57.196;-2.100;2023-08-07T10:50:29;12.63;;;12.23;;
22068;SDS011;13887;57.196;-2.100;2023-08-07T10:53:03;12.70;;;12.30;;
22068;SDS011;13887;57.196;-2.100;2023-08-07T10:55:55;13.20;;;12.80;;
22068;SDS011;13887;57.196;-2.100;2023-08-07T10:58:25;12.97;;;12.57;;
22068;SDS011;13887;57.196;-2.100;2023-08-07T11:03:51;12.47;;;12.07;;
22068;SDS011;13887;57.196;-2.100;2023-08-07T11:06:26;12.63;;;12.23;;
22068;SDS011;13887;57.196;-2.100;2023-08-07T11:08:58;12.70;;;12.30;;
22068;SDS011;13887;57.196;-2.100;2023-08-07T11:11:28;12.70;;;12.30;;
22068;SDS011;13887;57.196;-2.100;2023-08-07T11:13:56;12.63;;;12.23;;
22068;SDS011;13887;57.196;-2.100;2023-08-07T11:16:24;12.87;;;12.47;;
22068;SDS011;13887;57.196;-2.100;2023-08-07T11:18:51;12.63;;;12.23;;
22068;SDS011;13887;57.196;-2.100;2023-08-07T11:21:19;12.83;;;12.43;;
22068;SDS011;13887;57.196;-2.100;2023-08-07T11:23:47;12.97;;;12.57;;
22068;SDS011;13887;57.196;-2.100;2023-08-07T11:26:14;12.87;;;12.47;;
22068;SDS011;13887;57.196;-2.100;2023-08-07T11:28:41;12.90;;;12.50;;
22068;SDS011;13887;57.196;-2.100;2023-08-07T11:31:08;12.90;;;12.50;;
22068;SDS011;13887;57.196;-2.100;2023-08-07T11:33:35;12.60;;;12.20;;
22068;SDS011;13887;57.196;-2.100;2023-08-07T11:36:03;12.57;;;12.17;;
22068;SDS011;13887;57.196;-2.100;2023-08-07T11:38:39;12.70;;;12.30;;
22068;SDS011;13887;57.196;-2.100;2023-08-07T11:41:12;12.50;;;12.10;;
22068;SDS011;13887;57.196;-2.100;2023-08-07T11:43:40;12.60;;;12.20;;
22068;SDS011;13887;57.196;-2.100;2023-08-07T11:46:12;13.17;;;12.77;;
22068;SDS011;13887;57.196;-2.100;2023-08-07T11:48:42;12.30;;;11.90;;
22068;SDS011;13887;57.196;-2.100;2023-08-07T11:51:11;12.93;;;12.53;;
22068;SDS011;13887;57.196;-2.100;2023-08-07T11:53:40;12.27;;;11.87;;
22068;SDS011;13887;57.196;-2.100;2023-08-07T11:56:08;12.70;;;12.30;;
22068;SDS011;13887;57.196;-2.100;2023-08-07T11:58:38;12.23;;;11.83;;
22068;SDS011;13887;57.196;-2.100;2023-08-07T12:01:14;11.97;;;11.57;;
22068;SDS011;13887;57.196;-2.100;2023-08-07T12:06:32;12.03;;;11.63;;
22068;SDS011;13887;57.196;-2.100;2023-08-07T12:09:01;12.10;;;11.70;;
22068;SDS011;13887;57.196;-2.100;2023-08-07T12:11:29;12.13;;;11.73;;
22068;SDS011;13887;57.196;-2.100;2023-08-07T12:13:59;12.70;;;12.30;;
22068;SDS011;13887;57.196;-2.100;2023-08-07T12:16:31;12.83;;;12.43;;
22068;SDS011;13887;57.196;-2.100;2023-08-07T12:19:00;12.10;;;11.70;;
22068;SDS011;13887;57.196;-2.100;2023-08-07T12:21:27;12.37;;;11.97;;
22068;SDS011;13887;57.196;-2.100;2023-08-07T12:23:55;12.47;;;12.07;;
22068;SDS011;13887;57.196;-2.100;2023-08-07T12:26:23;12.73;;;12.33;;
22068;SDS011;13887;57.196;-2.100;2023-08-07T12:28:50;13.33;;;12.90;;
22068;SDS011;13887;57.196;-2.100;2023-08-07T12:31:18;12.93;;;12.53;;
22068;SDS011;13887;57.196;-2.100;2023-08-07T12:33:45;12.63;;;12.23;;
22068;SDS011;13887;57.196;-2.100;2023-08-07T12:36:13;13.27;;;12.87;;
22068;SDS011;13887;57.196;-2.100;2023-08-07T12:38:44;13.10;;;12.70;;
22068;SDS011;13887;57.196;-2.100;2023-08-07T12:41:11;12.87;;;12.47;;
22068;SDS011;13887;57.196;-2.100;2023-08-07T12:43:41;12.97;;;12.57;;
22068;SDS011;13887;57.196;-2.100;2023-08-07T12:46:08;13.00;;;12.60;;
22068;SDS011;13887;57.196;-2.100;2023-08-07T12:48:38;12.80;;;12.40;;
22068;SDS011;13887;57.196;-2.100;2023-08-07T12:51:05;12.63;;;12.23;;
22068;SDS011;13887;57.196;-2.100;2023-08-07T12:53:32;13.10;;;12.70;;
22068;SDS011;13887;57.196;-2.100;2023-08-07T12:55:59;13.53;;;13.03;;
22068;SDS011;13887;57.196;-2.100;2023-08-07T12:58:26;13.17;;;12.77;;
22068;SDS011;13887;57.196;-2.100;2023-08-07T13:00:56;13.23;;;12.83;;
22068;SDS011;13887;57.196;-2.100;2023-08-07T13:03:23;12.80;;;12.40;;
22068;SDS011;13887;57.196;-2.100;2023-08-07T13:05:51;12.67;;;12.27;;
22068;SDS011;13887;57.196;-2.100;2023-08-07T13:08:18;12.60;;;12.20;;
22068;SDS011;13887;57.196;-2.100;2023-08-07T13:10:45;12.37;;;11.97;;
22068;SDS011;13887;57.196;-2.100;2023-08-07T13:13:15;12.93;;;12.53;;
22068;SDS011;13887;57.196;-2.100;2023-08-07T13:15:43;12.80;;;12.40;;
22068;SDS011;13887;57.196;-2.100;2023-08-07T13:18:10;12.90;;;12.50;;
22068;SDS011;13887;57.196;-2.100;2023-08-07T13:20:37;13.00;;;12.60;;
22068;SDS011;13887;57.196;-2.100;2023-08-07T13:23:04;12.53;;;12.13;;
22068;SDS011;13887;57.196;-2.100;2023-08-07T13:25:33;12.70;;;12.30;;
22068;SDS011;13887;57.196;-2.100;2023-08-07T13:28:00;12.97;;;12.57;;
22068;SDS011;13887;57.196;-2.100;2023-08-07T13:30:31;13.07;;;12.67;;
22068;SDS011;13887;57.196;-2.100;2023-08-07T13:33:02;12.73;;;12.33;;
22068;SDS011;13887;57.196;-2.100;2023-08-07T13:35:30;12.87;;;12.47;;
22068;SDS011;13887;57.196;-2.100;2023-08-07T13:38:00;13.13;;;12.73;;
22068;SDS011;13887;57.196;-2.100;2023-08-07T13:40:31;13.03;;;12.63;;
22068;SDS011;13887;57.196;-2.100;2023-08-07T13:42:59;12.80;;;12.40;;
22068;SDS011;13887;57.196;-2.100;2023-08-07T13:45:29;12.80;;;12.40;;
22068;SDS011;13887;57.196;-2.100;2023-08-07T13:47:56;12.73;;;12.33;;
22068;SDS011;13887;57.196;-2.100;2023-08-07T13:50:23;12.90;;;12.50;;
22068;SDS011;13887;57.196;-2.100;2023-08-07T13:52:51;13.07;;;12.67;;
22068;SDS011;13887;57.196;-2.100;2023-08-07T13:55:29;13.50;;;13.00;;
22068;SDS011;13887;57.196;-2.100;2023-08-07T13:57:56;12.80;;;12.40;;
22068;SDS011;13887;57.196;-2.100;2023-08-07T14:00:23;12.70;;;12.30;;
22068;SDS011;13887;57.196;-2.100;2023-08-07T14:02:50;12.83;;;12.43;;
22068;SDS011;13887;57.196;-2.100;2023-08-07T14:05:18;12.50;;;12.10;;
22068;SDS011;13887;57.196;-2.100;2023-08-07T14:07:45;12.60;;;12.20;;
22068;SDS011;13887;57.196;-2.100;2023-08-07T14:10:12;12.50;;;12.10;;
22068;SDS011;13887;57.196;-2.100;2023-08-07T14:12:39;12.80;;;12.40;;
22068;SDS011;13887;57.196;-2.100;2023-08-07T14:15:06;12.70;;;12.30;;
22068;SDS011;13887;57.196;-2.100;2023-08-07T14:17:34;12.80;;;12.40;;
22068;SDS011;13887;57.196;-2.100;2023-08-07T14:20:01;12.93;;;12.53;;
22068;SDS011;13887;57.196;-2.100;2023-08-07T14:22:28;13.00;;;12.60;;
22068;SDS011;13887;57.196;-2.100;2023-08-07T14:24:55;12.67;;;12.27;;
22068;SDS011;13887;57.196;-2.100;2023-08-07T14:27:22;12.80;;;12.40;;
22068;SDS011;13887;57.196;-2.100;2023-08-07T14:29:49;13.23;;;12.83;;
22068;SDS011;13887;57.196;-2.100;2023-08-07T14:32:17;12.87;;;12.47;;
22068;SDS011;13887;57.196;-2.100;2023-08-07T14:34:44;12.47;;;12.07;;
22068;SDS011;13887;57.196;-2.100;2023-08-07T14:37:13;12.00;;;11.60;;